createdAt,value
2017-11-05T00:00:14.866Z,0.00
2017-11-05T00:01:14.861Z,0.00
2017-11-05T00:02:14.843Z,0.00
2017-11-05T00:03:14.839Z,0.00
2017-11-05T00:04:14.836Z,0.00
2017-11-05T00:05:14.816Z,0.00
2017-11-05T00:06:14.807Z,0.00
2017-11-05T00:07:14.799Z,0.00
2017-11-05T00:08:14.787Z,0.00
2017-11-05T00:09:14.796Z,0.00
2017-11-05T00:10:14.779Z,0.00
2017-11-05T00:11:14.760Z,0.00
2017-11-05T00:12:14.749Z,0.00
2017-11-05T00:13:14.743Z,0.00
2017-11-05T00:14:14.730Z,0.00
2017-11-05T00:15:14.723Z,0.00
2017-11-05T00:16:14.712Z,0.00
2017-11-05T00:17:14.714Z,0.00
2017-11-05T00:18:14.694Z,0.00
2017-11-05T00:19:14.686Z,0.00
2017-11-05T00:20:14.685Z,0.00
2017-11-05T00:21:14.666Z,0.00
2017-11-05T00:22:14.668Z,0.00
2017-11-05T00:23:14.648Z,0.00
2017-11-05T00:24:14.640Z,0.00
2017-11-05T00:25:14.629Z,0.00
2017-11-05T00:26:14.627Z,0.00
2017-11-05T00:27:14.613Z,0.00
2017-11-05T00:28:14.605Z,0.00
2017-11-05T00:29:14.593Z,0.00
2017-11-05T00:30:14.600Z,0.00
2017-11-05T00:31:14.577Z,0.00
2017-11-05T00:32:14.567Z,0.00
2017-11-05T00:33:14.557Z,0.00
2017-11-05T00:34:14.546Z,0.00
2017-11-05T00:35:14.536Z,0.00
2017-11-05T00:36:14.534Z,0.00
2017-11-05T00:37:14.519Z,0.00
2017-11-05T00:38:14.550Z,0.00
2017-11-05T00:39:14.506Z,0.00
2017-11-05T00:40:14.490Z,0.00
2017-11-05T00:41:14.491Z,0.00
2017-11-05T00:42:14.473Z,0.00
2017-11-05T00:43:14.472Z,0.00
2017-11-05T00:44:14.454Z,0.00
2017-11-05T00:45:14.445Z,0.00
2017-11-05T00:46:14.437Z,0.00
2017-11-05T00:47:14.428Z,0.00
2017-11-05T00:48:14.416Z,0.00
2017-11-05T00:49:14.414Z,0.00
2017-11-05T00:50:14.420Z,0.00
2017-11-05T00:51:14.389Z,0.00
2017-11-05T00:52:14.379Z,0.00
2017-11-05T00:53:14.374Z,0.00
2017-11-05T00:54:14.373Z,0.00
2017-11-05T00:55:14.354Z,0.00
2017-11-05T00:56:14.348Z,0.00
2017-11-05T00:57:14.332Z,0.00
2017-11-05T00:58:14.330Z,0.00
2017-11-05T00:59:14.317Z,0.00
2017-11-05T01:00:14.318Z,0.00
2017-11-05T01:01:14.295Z,0.00
2017-11-05T01:02:14.287Z,0.00
2017-11-05T01:03:14.286Z,0.00
2017-11-05T01:04:14.268Z,0.00
2017-11-05T01:05:14.261Z,0.00
2017-11-05T01:06:14.265Z,0.00
2017-11-05T01:07:14.251Z,0.00
2017-11-05T01:08:14.236Z,0.00
2017-11-05T01:09:14.231Z,0.00
2017-11-05T01:10:14.212Z,0.00
2017-11-05T01:11:14.206Z,0.00
2017-11-05T01:12:14.197Z,0.00
2017-11-05T01:13:14.195Z,0.00
2017-11-05T01:14:14.175Z,0.00
2017-11-05T01:15:14.166Z,0.00
2017-11-05T01:16:14.163Z,0.00
2017-11-05T01:17:14.149Z,0.00
2017-11-05T01:18:14.143Z,0.00
2017-11-05T01:19:14.132Z,0.00
2017-11-05T01:20:14.127Z,0.00
2017-11-05T01:21:14.110Z,0.00
2017-11-05T01:22:14.104Z,0.00
2017-11-05T01:23:14.094Z,0.00
2017-11-05T01:24:14.084Z,0.00
2017-11-05T01:25:14.091Z,0.00
2017-11-05T01:26:14.075Z,0.00
2017-11-05T01:27:14.058Z,0.00
2017-11-05T01:28:14.048Z,0.00
2017-11-05T01:29:14.043Z,0.00
2017-11-05T01:30:14.029Z,0.00
2017-11-05T01:31:14.022Z,0.00
2017-11-05T01:32:14.008Z,0.00
2017-11-05T01:33:13.999Z,0.00
2017-11-05T01:34:13.991Z,0.00
2017-11-05T01:35:13.985Z,0.00
2017-11-05T01:36:13.974Z,0.00
2017-11-05T01:37:13.966Z,0.00
2017-11-05T01:38:13.955Z,0.00
2017-11-05T01:39:13.951Z,0.00
2017-11-05T01:40:13.939Z,0.00
2017-11-05T01:41:13.927Z,0.00
2017-11-05T01:42:13.925Z,0.00
2017-11-05T01:43:13.914Z,0.00
2017-11-05T01:44:13.900Z,0.00
2017-11-05T01:45:13.891Z,0.00
2017-11-05T01:46:13.901Z,0.00
2017-11-05T01:47:13.873Z,0.00
2017-11-05T01:48:13.860Z,0.00
2017-11-05T01:49:13.856Z,0.00
2017-11-05T01:50:13.850Z,0.00
2017-11-05T01:51:13.856Z,0.00
2017-11-05T01:52:15.682Z,0.00
2017-11-05T01:53:13.817Z,0.00
2017-11-05T01:54:13.809Z,0.00
2017-11-05T01:55:13.800Z,0.00
2017-11-05T01:56:13.803Z,0.00
2017-11-05T01:57:13.779Z,0.00
2017-11-05T01:58:13.772Z,0.00
2017-11-05T01:59:13.762Z,0.00
2017-11-05T02:00:13.752Z,0.00
2017-11-05T02:01:13.741Z,0.00
2017-11-05T02:02:13.752Z,0.00
2017-11-05T02:03:13.728Z,0.00
2017-11-05T02:04:13.722Z,0.00
2017-11-05T02:05:13.710Z,0.00
2017-11-05T02:06:13.701Z,0.00
2017-11-05T02:07:13.687Z,0.00
2017-11-05T02:08:13.689Z,0.00
2017-11-05T02:09:13.670Z,0.00
2017-11-05T02:10:13.666Z,0.00
2017-11-05T02:11:13.663Z,0.00
2017-11-05T02:12:13.643Z,0.00
2017-11-05T02:13:13.638Z,0.00
2017-11-05T02:14:13.622Z,0.00
2017-11-05T02:15:13.633Z,0.00
2017-11-05T02:16:13.617Z,0.00
2017-11-05T02:17:13.596Z,0.00
2017-11-05T02:18:13.590Z,0.00
2017-11-05T02:19:13.578Z,0.00
2017-11-05T02:20:13.567Z,0.00
2017-11-05T02:21:13.560Z,0.00
2017-11-05T02:22:13.549Z,0.00
2017-11-05T02:23:13.539Z,0.00
2017-11-05T02:24:13.535Z,0.00
2017-11-05T02:25:13.521Z,0.00
2017-11-05T02:26:13.513Z,0.00
2017-11-05T02:27:13.503Z,0.00
2017-11-05T02:28:13.491Z,0.00
2017-11-05T02:29:13.541Z,0.00
2017-11-05T02:30:13.478Z,0.00
2017-11-05T02:31:13.474Z,0.00
2017-11-05T02:32:13.457Z,0.00
2017-11-05T02:33:13.449Z,0.00
2017-11-05T02:34:13.437Z,0.00
2017-11-05T02:35:13.432Z,0.00
2017-11-05T02:36:13.417Z,0.00
2017-11-05T02:37:13.416Z,0.00
2017-11-05T02:38:13.402Z,0.00
2017-11-05T02:39:13.396Z,0.00
2017-11-05T02:40:13.382Z,0.00
2017-11-05T02:41:13.378Z,0.00
2017-11-05T02:42:13.362Z,0.00
2017-11-05T02:43:13.356Z,0.00
2017-11-05T02:44:13.365Z,0.00
2017-11-05T02:45:13.334Z,0.00
2017-11-05T02:46:13.326Z,0.00
2017-11-05T02:47:13.317Z,0.00
2017-11-05T02:48:13.305Z,0.00
2017-11-05T02:49:13.297Z,0.00
2017-11-05T02:50:13.299Z,0.00
2017-11-05T02:51:13.287Z,0.00
2017-11-05T02:52:13.268Z,0.00
2017-11-05T02:53:13.259Z,0.00
2017-11-05T02:54:13.251Z,0.00
2017-11-05T02:55:13.243Z,0.00
2017-11-05T02:56:13.237Z,0.00
2017-11-05T02:57:13.223Z,0.00
2017-11-05T02:58:13.212Z,0.00
2017-11-05T02:59:13.208Z,0.00
2017-11-05T03:00:13.196Z,0.00
2017-11-05T03:01:13.190Z,0.00
2017-11-05T03:02:13.174Z,0.00
2017-11-05T03:03:13.175Z,0.00
2017-11-05T03:04:13.154Z,0.00
2017-11-05T03:05:13.146Z,0.00
2017-11-05T03:06:13.136Z,0.00
2017-11-05T03:07:13.130Z,0.00
2017-11-05T03:08:13.116Z,0.00
2017-11-05T03:09:13.126Z,0.00
2017-11-05T03:10:13.103Z,0.00
2017-11-05T03:11:13.098Z,0.00
2017-11-05T03:12:13.078Z,0.00
2017-11-05T03:13:13.069Z,0.00
2017-11-05T03:14:13.060Z,0.00
2017-11-05T03:15:13.057Z,0.00
2017-11-05T03:16:13.042Z,0.00
2017-11-05T03:17:13.033Z,0.00
2017-11-05T03:18:13.031Z,0.00
2017-11-05T03:19:13.012Z,0.00
2017-11-05T03:20:13.013Z,0.00
2017-11-05T03:21:12.997Z,0.00
2017-11-05T03:22:12.995Z,0.00
2017-11-05T03:23:12.976Z,0.00
2017-11-05T03:24:34.002Z,0.00
2017-11-05T03:25:12.957Z,0.00
2017-11-05T03:26:12.946Z,0.00
2017-11-05T03:27:12.937Z,0.00
2017-11-05T03:28:12.930Z,0.00
2017-11-05T03:29:12.918Z,0.00
2017-11-05T03:30:12.909Z,0.00
2017-11-05T03:31:12.899Z,0.00
2017-11-05T03:32:12.887Z,0.00
2017-11-05T03:33:12.878Z,0.00
2017-11-05T03:34:12.869Z,0.00
2017-11-05T03:35:12.861Z,0.00
2017-11-05T03:36:12.850Z,0.00
2017-11-05T03:37:12.845Z,0.00
2017-11-05T03:38:12.831Z,0.00
2017-11-05T03:39:12.828Z,0.00
2017-11-05T03:40:12.811Z,0.00
2017-11-05T03:41:12.805Z,0.00
2017-11-05T03:42:12.795Z,0.00
2017-11-05T03:43:12.784Z,0.00
2017-11-05T03:44:12.773Z,0.00
2017-11-05T03:45:12.778Z,0.00
2017-11-05T03:46:12.755Z,0.00
2017-11-05T03:47:12.749Z,0.00
2017-11-05T03:48:12.734Z,0.00
2017-11-05T03:49:12.728Z,0.00
2017-11-05T03:50:12.715Z,0.00
2017-11-05T03:51:12.709Z,0.00
2017-11-05T03:52:12.696Z,0.00
2017-11-05T03:53:12.690Z,0.00
2017-11-05T03:54:12.679Z,0.00
2017-11-05T03:55:12.668Z,0.00
2017-11-05T03:56:12.659Z,0.00
2017-11-05T03:57:12.648Z,0.00
2017-11-05T03:58:12.647Z,0.00
2017-11-05T03:59:12.629Z,0.00
2017-11-05T04:00:12.618Z,0.00
2017-11-05T04:01:12.607Z,0.00
2017-11-05T04:02:12.599Z,0.00
2017-11-05T04:03:12.590Z,0.00
2017-11-05T04:04:12.581Z,0.00
2017-11-05T04:05:12.570Z,0.00
2017-11-05T04:06:12.564Z,0.00
2017-11-05T04:07:12.553Z,0.00
2017-11-05T04:08:12.540Z,0.00
2017-11-05T04:09:12.531Z,0.00
2017-11-05T04:10:12.523Z,0.00
2017-11-05T04:11:12.512Z,0.00
2017-11-05T04:12:12.512Z,0.00
2017-11-05T04:13:12.493Z,0.00
2017-11-05T04:14:12.486Z,0.00
2017-11-05T04:15:12.473Z,0.00
2017-11-05T04:16:12.462Z,0.00
2017-11-05T04:17:12.454Z,0.00
2017-11-05T04:18:12.445Z,0.00
2017-11-05T04:19:12.433Z,0.00
2017-11-05T04:20:12.430Z,0.00
2017-11-05T04:21:12.420Z,0.00
2017-11-05T04:22:12.408Z,0.00
2017-11-05T04:23:12.400Z,0.00
2017-11-05T04:24:12.388Z,0.00
2017-11-05T04:25:12.384Z,0.00
2017-11-05T04:26:12.366Z,0.00
2017-11-05T04:27:12.360Z,0.00
2017-11-05T04:28:12.348Z,0.00
2017-11-05T04:29:12.341Z,0.00
2017-11-05T04:30:12.331Z,0.00
2017-11-05T04:31:12.326Z,0.00
2017-11-05T04:32:12.317Z,0.00
2017-11-05T04:33:12.301Z,0.00
2017-11-05T04:34:12.288Z,0.00
2017-11-05T04:35:12.290Z,0.00
2017-11-05T04:36:12.271Z,0.00
2017-11-05T04:37:12.266Z,0.00
2017-11-05T04:38:12.249Z,0.00
2017-11-05T04:39:12.240Z,0.00
2017-11-05T04:40:12.230Z,0.00
2017-11-05T04:41:12.224Z,0.00
2017-11-05T04:42:12.212Z,0.00
2017-11-05T04:43:12.200Z,0.00
2017-11-05T04:44:12.190Z,0.00
2017-11-05T04:45:12.182Z,0.00
2017-11-05T04:46:12.180Z,0.00
2017-11-05T04:47:12.162Z,0.00
2017-11-05T04:48:12.150Z,0.00
2017-11-05T04:49:12.144Z,0.00
2017-11-05T04:50:12.142Z,0.00
2017-11-05T04:51:12.139Z,0.00
2017-11-05T04:52:12.114Z,0.00
2017-11-05T04:53:12.103Z,0.00
2017-11-05T04:54:12.097Z,0.00
2017-11-05T04:55:12.085Z,0.00
2017-11-05T04:56:12.077Z,0.00
2017-11-05T04:57:12.066Z,0.00
2017-11-05T04:58:12.053Z,0.00
2017-11-05T04:59:12.046Z,0.00
2017-11-05T05:00:12.039Z,0.00
2017-11-05T05:01:12.026Z,0.00
2017-11-05T05:02:12.028Z,0.00
2017-11-05T05:03:12.006Z,0.00
2017-11-05T05:04:11.996Z,0.00
2017-11-05T05:05:11.986Z,0.00
2017-11-05T05:06:11.985Z,0.00
2017-11-05T05:07:11.967Z,0.00
2017-11-05T05:08:11.965Z,0.00
2017-11-05T05:09:11.946Z,0.00
2017-11-05T05:10:11.938Z,0.00
2017-11-05T05:11:11.926Z,0.00
2017-11-05T05:12:11.918Z,0.00
2017-11-05T05:13:11.908Z,0.00
2017-11-05T05:14:11.896Z,0.00
2017-11-05T05:15:11.910Z,0.00
2017-11-05T05:16:11.882Z,0.00
2017-11-05T05:17:11.868Z,0.00
2017-11-05T05:18:11.858Z,0.00
2017-11-05T05:19:11.850Z,0.00
2017-11-05T05:20:11.841Z,0.00
2017-11-05T05:21:11.853Z,0.00
2017-11-05T05:22:11.820Z,0.00
2017-11-05T05:23:11.809Z,0.00
2017-11-05T05:24:11.807Z,0.00
2017-11-05T05:25:11.793Z,0.00
2017-11-05T05:26:11.781Z,0.00
2017-11-05T05:27:11.781Z,0.00
2017-11-05T05:28:11.759Z,0.00
2017-11-05T05:29:11.756Z,0.00
2017-11-05T05:30:11.741Z,0.00
2017-11-05T05:31:11.736Z,0.00
2017-11-05T05:32:11.721Z,0.00
2017-11-05T05:33:11.724Z,0.00
2017-11-05T05:34:20.452Z,0.00
2017-11-05T05:36:05.673Z,0.00
2017-11-05T05:37:05.349Z,0.00
2017-11-05T05:38:59.017Z,0.00
2017-11-05T05:39:58.997Z,0.00
2017-11-05T05:40:59.008Z,0.00
2017-11-05T05:41:58.987Z,0.00
2017-11-05T05:42:58.974Z,0.00
2017-11-05T05:43:58.954Z,0.00
2017-11-05T05:44:58.953Z,0.00
2017-11-05T05:45:58.935Z,0.00
2017-11-05T05:46:58.933Z,0.00
2017-11-05T05:47:58.920Z,0.00
2017-11-05T05:48:58.915Z,0.00
2017-11-05T05:49:58.897Z,0.00
2017-11-05T05:50:58.887Z,0.00
2017-11-05T05:51:58.878Z,0.00
2017-11-05T05:52:58.871Z,0.00
2017-11-05T05:53:58.858Z,0.00
2017-11-05T05:54:58.853Z,0.00
2017-11-05T05:55:58.836Z,0.00
2017-11-05T05:56:58.828Z,0.00
2017-11-05T05:57:58.818Z,0.00
2017-11-05T05:58:58.809Z,0.00
2017-11-05T05:59:58.803Z,0.00
2017-11-05T06:00:58.791Z,0.00
2017-11-05T06:01:58.778Z,0.00
2017-11-05T06:02:58.768Z,0.00
2017-11-05T06:03:58.764Z,0.00
2017-11-05T06:04:58.749Z,0.00
2017-11-05T06:05:58.741Z,0.00
2017-11-05T06:06:58.729Z,0.00
2017-11-05T06:07:58.718Z,0.00
2017-11-05T06:08:58.711Z,0.00
2017-11-05T06:09:58.698Z,0.00
2017-11-05T06:10:58.690Z,0.00
2017-11-05T06:11:58.687Z,0.00
2017-11-05T06:12:58.671Z,0.00
2017-11-05T06:13:58.672Z,0.00
2017-11-05T06:14:58.651Z,0.00
2017-11-05T06:15:58.647Z,0.00
2017-11-05T06:16:58.628Z,0.00
2017-11-05T06:17:58.626Z,0.00
2017-11-05T06:18:58.611Z,0.00
2017-11-05T06:19:58.605Z,0.00
2017-11-05T06:20:58.590Z,0.00
2017-11-05T06:21:58.579Z,0.00
2017-11-05T06:22:58.569Z,0.00
2017-11-05T06:23:58.559Z,0.00
2017-11-05T06:24:58.551Z,0.00
2017-11-05T06:25:58.546Z,0.00
2017-11-05T06:26:58.855Z,0.00
2017-11-05T06:27:58.520Z,0.00
2017-11-05T06:28:58.510Z,0.00
2017-11-05T06:29:58.500Z,0.00
2017-11-05T06:30:58.516Z,0.00
2017-11-05T06:31:58.480Z,0.00
2017-11-05T06:32:58.472Z,0.00
2017-11-05T06:33:58.460Z,0.00
2017-11-05T06:34:58.459Z,0.00
2017-11-05T06:35:58.664Z,0.00
2017-11-05T06:36:58.431Z,5.63
2017-11-05T06:37:58.421Z,5.63
2017-11-05T06:38:58.411Z,5.63
2017-11-05T06:39:58.406Z,5.63
2017-11-05T06:40:58.389Z,5.63
2017-11-05T06:41:58.380Z,5.63
2017-11-05T06:42:58.368Z,5.63
2017-11-05T06:43:58.358Z,5.63
2017-11-05T06:44:58.401Z,5.63
2017-11-05T06:45:58.339Z,5.63
2017-11-05T06:46:58.367Z,5.63
2017-11-05T06:47:58.318Z,5.63
2017-11-05T06:48:58.374Z,11.25
2017-11-05T06:49:58.367Z,11.25
2017-11-05T06:50:58.288Z,11.25
2017-11-05T06:51:58.278Z,11.25
2017-11-05T06:52:58.274Z,11.25
2017-11-05T06:53:58.259Z,11.25
2017-11-05T06:54:58.247Z,11.25
2017-11-05T06:55:58.323Z,16.88
2017-11-05T06:56:58.226Z,16.88
2017-11-05T06:57:58.275Z,16.88
2017-11-05T06:58:58.212Z,16.88
2017-11-05T06:59:58.196Z,16.88
2017-11-05T07:00:58.289Z,16.88
2017-11-05T07:01:58.202Z,16.88
2017-11-05T07:02:58.178Z,16.88
2017-11-05T07:03:58.156Z,16.88
2017-11-05T07:04:58.146Z,22.50
2017-11-05T07:05:58.135Z,22.50
2017-11-05T07:06:58.129Z,22.50
2017-11-05T07:07:58.124Z,22.50
2017-11-05T07:08:58.101Z,22.50
2017-11-05T07:09:58.095Z,22.50
2017-11-05T07:10:58.106Z,28.13
2017-11-05T07:11:58.073Z,28.13
2017-11-05T07:12:58.063Z,33.75
2017-11-05T07:13:58.051Z,39.38
2017-11-05T07:14:58.044Z,39.38
2017-11-05T07:15:58.033Z,39.38
2017-11-05T07:16:58.021Z,39.38
2017-11-05T07:17:58.015Z,45.00
2017-11-05T07:18:58.003Z,39.38
2017-11-05T07:19:57.994Z,39.38
2017-11-05T07:20:57.987Z,39.38
2017-11-05T07:21:57.972Z,45.00
2017-11-05T07:22:57.960Z,39.38
2017-11-05T07:23:57.951Z,39.38
2017-11-05T07:24:57.940Z,39.38
2017-11-05T07:25:57.929Z,39.38
2017-11-05T07:26:57.927Z,33.75
2017-11-05T07:27:57.918Z,28.13
2017-11-05T07:28:57.925Z,28.13
2017-11-05T07:29:57.916Z,28.13
2017-11-05T07:30:57.889Z,22.50
2017-11-05T07:31:57.867Z,28.13
2017-11-05T07:32:57.864Z,28.13
2017-11-05T07:33:57.848Z,33.75
2017-11-05T07:34:57.838Z,39.38
2017-11-05T07:35:57.828Z,45.00
2017-11-05T07:36:57.818Z,50.63
2017-11-05T07:37:57.807Z,56.25
2017-11-05T07:38:57.801Z,61.88
2017-11-05T07:39:57.785Z,61.88
2017-11-05T07:40:57.775Z,67.50
2017-11-05T07:41:57.765Z,73.13
2017-11-05T07:42:57.756Z,78.75
2017-11-05T07:43:57.745Z,78.75
2017-11-05T07:44:57.747Z,78.75
2017-11-05T07:45:57.723Z,78.75
2017-11-05T07:46:57.716Z,84.38
2017-11-05T07:47:57.703Z,84.38
2017-11-05T07:48:57.695Z,73.13
2017-11-05T07:49:57.685Z,45.00
2017-11-05T07:50:57.679Z,56.25
2017-11-05T07:51:57.671Z,78.75
2017-11-05T07:52:57.651Z,101.25
2017-11-05T07:53:57.645Z,106.88
2017-11-05T07:54:57.635Z,112.50
2017-11-05T07:55:57.621Z,118.13
2017-11-05T07:56:57.613Z,123.75
2017-11-05T07:57:57.601Z,123.75
2017-11-05T07:58:57.591Z,112.50
2017-11-05T07:59:57.579Z,106.88
2017-11-05T08:00:57.569Z,123.75
2017-11-05T08:01:57.565Z,140.63
2017-11-05T08:02:57.552Z,157.50
2017-11-05T08:03:57.544Z,163.13
2017-11-05T08:04:57.526Z,163.13
2017-11-05T08:05:57.531Z,151.88
2017-11-05T08:06:57.506Z,146.25
2017-11-05T08:07:57.497Z,140.63
2017-11-05T08:08:57.492Z,129.38
2017-11-05T08:09:57.474Z,123.75
2017-11-05T08:10:57.464Z,129.38
2017-11-05T08:11:57.455Z,140.63
2017-11-05T08:12:57.444Z,157.50
2017-11-05T08:13:57.432Z,168.75
2017-11-05T08:14:57.427Z,174.38
2017-11-05T08:15:57.412Z,174.38
2017-11-05T08:16:57.402Z,174.38
2017-11-05T08:17:57.392Z,174.38
2017-11-05T08:18:57.381Z,168.75
2017-11-05T08:19:57.369Z,168.75
2017-11-05T08:20:57.369Z,168.75
2017-11-05T08:21:57.351Z,168.75
2017-11-05T08:22:57.339Z,168.75
2017-11-05T08:23:57.328Z,168.75
2017-11-05T08:24:57.318Z,168.75
2017-11-05T08:25:57.308Z,168.75
2017-11-05T08:26:57.303Z,174.38
2017-11-05T08:27:57.285Z,180.00
2017-11-05T08:28:57.274Z,180.00
2017-11-05T08:29:57.268Z,174.38
2017-11-05T08:30:57.256Z,163.13
2017-11-05T08:31:57.251Z,151.88
2017-11-05T08:32:57.242Z,146.25
2017-11-05T08:33:57.220Z,140.63
2017-11-05T08:34:57.212Z,135.00
2017-11-05T08:35:57.202Z,129.38
2017-11-05T08:36:57.196Z,123.75
2017-11-05T08:37:57.180Z,118.13
2017-11-05T08:38:57.181Z,106.88
2017-11-05T08:39:57.158Z,95.63
2017-11-05T08:40:57.151Z,95.63
2017-11-05T08:41:57.138Z,95.63
2017-11-05T08:42:57.129Z,95.63
2017-11-05T08:43:57.194Z,95.63
2017-11-05T08:44:57.112Z,101.25
2017-11-05T08:45:57.096Z,101.25
2017-11-05T08:46:57.101Z,106.88
2017-11-05T08:47:57.074Z,112.50
2017-11-05T08:48:57.068Z,112.50
2017-11-05T08:49:57.057Z,118.13
2017-11-05T08:50:57.130Z,129.38
2017-11-05T08:51:57.826Z,140.63
2017-11-05T08:52:57.021Z,151.88
2017-11-05T08:53:57.026Z,163.13
2017-11-05T08:54:57.002Z,180.00
2017-11-05T08:55:56.986Z,202.50
2017-11-05T08:56:56.986Z,236.25
2017-11-05T08:57:56.972Z,258.75
2017-11-05T08:58:56.958Z,258.75
2017-11-05T08:59:56.947Z,247.50
2017-11-05T09:00:56.939Z,236.25
2017-11-05T09:01:56.928Z,225.00
2017-11-05T09:02:56.917Z,219.38
2017-11-05T09:03:56.907Z,213.75
2017-11-05T09:04:56.895Z,219.38
2017-11-05T09:05:56.883Z,225.00
2017-11-05T09:06:56.875Z,230.63
2017-11-05T09:07:56.867Z,236.25
2017-11-05T09:08:56.866Z,241.88
2017-11-05T09:09:56.845Z,241.88
2017-11-05T09:10:56.830Z,247.50
2017-11-05T09:11:56.819Z,258.75
2017-11-05T09:12:56.814Z,253.13
2017-11-05T09:14:01.331Z,236.25
2017-11-05T09:14:56.786Z,225.00
2017-11-05T09:15:56.777Z,208.13
2017-11-05T09:16:56.774Z,202.50
2017-11-05T09:17:57.370Z,202.50
2017-11-05T09:19:18.342Z,219.38
2017-11-05T09:22:08.189Z,270.00
2017-11-05T09:22:29.950Z,270.00
2017-11-05T09:23:30.462Z,264.38
2017-11-05T09:24:31.263Z,264.38
2017-11-05T09:25:30.013Z,275.63
2017-11-05T09:26:29.919Z,275.63
2017-11-05T09:27:29.888Z,270.00
2017-11-05T09:28:29.878Z,241.88
2017-11-05T09:29:29.869Z,219.38
2017-11-05T09:30:29.860Z,191.25
2017-11-05T09:31:29.845Z,174.38
2017-11-05T09:32:29.837Z,163.13
2017-11-05T09:33:29.826Z,157.50
2017-11-05T09:34:29.826Z,163.13
2017-11-05T09:35:29.814Z,163.13
2017-11-05T09:36:29.795Z,163.13
2017-11-05T09:37:29.785Z,163.13
2017-11-05T09:38:29.784Z,163.13
2017-11-05T09:39:29.763Z,163.13
2017-11-05T09:40:29.752Z,168.75
2017-11-05T09:41:29.750Z,174.38
2017-11-05T09:42:29.731Z,185.63
2017-11-05T09:43:29.737Z,185.63
2017-11-05T09:44:29.712Z,191.25
2017-11-05T09:45:29.699Z,191.25
2017-11-05T09:46:29.691Z,185.63
2017-11-05T09:47:29.683Z,185.63
2017-11-05T09:48:29.669Z,180.00
2017-11-05T09:49:29.660Z,168.75
2017-11-05T09:50:29.647Z,157.50
2017-11-05T09:51:29.640Z,157.50
2017-11-05T09:52:29.626Z,157.50
2017-11-05T09:53:29.637Z,157.50
2017-11-05T09:54:29.605Z,157.50
2017-11-05T09:55:29.599Z,157.50
2017-11-05T09:56:29.592Z,157.50
2017-11-05T09:57:29.582Z,157.50
2017-11-05T09:58:29.570Z,157.50
2017-11-05T09:59:29.571Z,157.50
2017-11-05T10:00:29.542Z,151.88
2017-11-05T10:01:29.533Z,146.25
2017-11-05T10:02:29.522Z,146.25
2017-11-05T10:03:29.523Z,146.25
2017-11-05T10:04:29.512Z,151.88
2017-11-05T10:05:29.544Z,157.50
2017-11-05T10:06:29.480Z,163.13
2017-11-05T10:07:29.469Z,163.13
2017-11-05T10:08:29.488Z,163.13
2017-11-05T10:09:29.453Z,168.75
2017-11-05T10:10:29.455Z,174.38
2017-11-05T10:11:29.485Z,180.00
2017-11-05T10:12:29.416Z,191.25
2017-11-05T10:13:29.407Z,196.88
2017-11-05T10:14:29.396Z,202.50
2017-11-05T10:15:29.395Z,202.50
2017-11-05T10:16:29.385Z,208.13
2017-11-05T10:17:29.374Z,213.75
2017-11-05T10:18:29.354Z,213.75
2017-11-05T10:19:29.346Z,208.13
2017-11-05T10:20:29.336Z,196.88
2017-11-05T10:21:29.324Z,185.63
2017-11-05T10:22:29.319Z,168.75
2017-11-05T10:23:29.304Z,157.50
2017-11-05T10:24:29.293Z,146.25
2017-11-05T10:25:29.283Z,151.88
2017-11-05T10:26:29.326Z,168.75
2017-11-05T10:27:29.857Z,180.00
2017-11-05T10:28:29.251Z,180.00
2017-11-05T10:29:29.243Z,196.88
2017-11-05T10:30:29.230Z,213.75
2017-11-05T10:31:29.218Z,213.75
2017-11-05T10:32:29.209Z,219.38
2017-11-05T10:33:29.197Z,225.00
2017-11-05T10:34:29.188Z,241.88
2017-11-05T10:35:29.177Z,270.00
2017-11-05T10:36:29.170Z,258.75
2017-11-05T10:37:29.158Z,258.75
2017-11-05T10:38:29.160Z,281.25
2017-11-05T10:39:29.136Z,292.50
2017-11-05T10:40:29.127Z,320.63
2017-11-05T10:41:29.122Z,343.13
2017-11-05T10:42:29.107Z,360.00
2017-11-05T10:43:29.097Z,382.50
2017-11-05T10:44:29.096Z,410.63
2017-11-05T10:45:29.082Z,421.88
2017-11-05T10:46:29.063Z,461.25
2017-11-05T10:47:29.053Z,495.00
2017-11-05T10:48:29.044Z,523.13
2017-11-05T10:49:29.034Z,540.00
2017-11-05T10:50:29.023Z,511.88
2017-11-05T10:51:29.015Z,489.38
2017-11-05T10:52:29.000Z,455.63
2017-11-05T10:53:28.992Z,433.13
2017-11-05T10:54:28.983Z,421.88
2017-11-05T10:55:29.913Z,421.88
2017-11-05T10:56:28.967Z,433.13
2017-11-05T10:57:28.955Z,461.25
2017-11-05T10:58:29.915Z,495.00
2017-11-05T10:59:28.932Z,528.75
2017-11-05T11:00:28.936Z,534.38
2017-11-05T11:01:28.922Z,523.13
2017-11-05T11:02:28.906Z,511.88
2017-11-05T11:03:28.897Z,517.50
2017-11-05T11:04:28.881Z,528.75
2017-11-05T11:05:28.875Z,545.63
2017-11-05T11:06:28.874Z,551.25
2017-11-05T11:07:28.855Z,551.25
2017-11-05T11:08:28.846Z,540.00
2017-11-05T11:09:28.838Z,528.75
2017-11-05T11:10:28.824Z,500.63
2017-11-05T11:11:28.815Z,483.75
2017-11-05T11:12:28.813Z,472.50
2017-11-05T11:13:28.790Z,478.13
2017-11-05T11:14:28.789Z,483.75
2017-11-05T11:15:28.785Z,489.38
2017-11-05T11:16:28.760Z,489.38
2017-11-05T11:17:28.751Z,489.38
2017-11-05T11:18:28.770Z,489.38
2017-11-05T11:19:28.735Z,495.00
2017-11-05T11:20:28.730Z,511.88
2017-11-05T11:21:28.719Z,528.75
2017-11-05T11:22:28.704Z,528.75
2017-11-05T11:23:28.736Z,511.88
2017-11-05T11:24:28.690Z,483.75
2017-11-05T11:25:28.672Z,466.88
2017-11-05T11:26:28.660Z,461.25
2017-11-05T11:27:28.655Z,472.50
2017-11-05T11:28:28.640Z,478.13
2017-11-05T11:29:28.634Z,489.38
2017-11-05T11:30:28.623Z,495.00
2017-11-05T11:31:28.611Z,500.63
2017-11-05T11:32:28.598Z,506.25
2017-11-05T11:33:28.593Z,495.00
2017-11-05T11:34:28.582Z,483.75
2017-11-05T11:35:28.571Z,478.13
2017-11-05T11:36:28.561Z,472.50
2017-11-05T11:37:28.551Z,466.88
2017-11-05T11:38:28.546Z,466.88
2017-11-05T11:39:28.532Z,466.88
2017-11-05T11:40:28.525Z,466.88
2017-11-05T11:41:28.516Z,450.00
2017-11-05T11:42:28.507Z,450.00
2017-11-05T11:43:28.612Z,438.75
2017-11-05T11:44:28.691Z,433.13
2017-11-05T11:45:28.671Z,393.75
2017-11-05T11:46:28.776Z,376.88
2017-11-05T11:47:28.458Z,371.25
2017-11-05T11:48:28.448Z,393.75
2017-11-05T11:49:28.780Z,433.13
2017-11-05T11:50:28.740Z,461.25
2017-11-05T11:51:28.501Z,483.75
2017-11-05T11:52:28.408Z,506.25
2017-11-05T11:53:28.395Z,523.13
2017-11-05T11:54:28.385Z,528.75
2017-11-05T11:55:28.378Z,523.13
2017-11-05T11:56:28.367Z,511.88
2017-11-05T11:57:28.360Z,495.00
2017-11-05T11:58:28.347Z,483.75
2017-11-05T11:59:28.501Z,472.50
2017-11-05T12:00:28.326Z,466.88
2017-11-05T12:01:28.549Z,461.25
2017-11-05T12:02:28.308Z,472.50
2017-11-05T12:03:28.299Z,466.88
2017-11-05T12:04:28.286Z,461.25
2017-11-05T12:05:28.277Z,455.63
2017-11-05T12:06:32.926Z,455.63
2017-11-05T12:07:28.268Z,455.63
2017-11-05T12:08:28.250Z,455.63
2017-11-05T12:09:28.244Z,472.50
2017-11-05T12:10:28.232Z,489.38
2017-11-05T12:11:28.228Z,495.00
2017-11-05T12:12:28.211Z,478.13
2017-11-05T12:13:28.203Z,472.50
2017-11-05T12:14:28.928Z,489.38
2017-11-05T12:15:28.932Z,478.13
2017-11-05T12:16:28.932Z,461.25
2017-11-05T12:17:28.157Z,455.63
2017-11-05T12:18:28.164Z,455.63
2017-11-05T12:19:28.137Z,472.50
2017-11-05T12:20:28.141Z,483.75
2017-11-05T12:21:28.123Z,466.88
2017-11-05T12:22:28.113Z,461.25
2017-11-05T12:23:28.100Z,472.50
2017-11-05T12:24:28.091Z,489.38
2017-11-05T12:25:28.080Z,511.88
2017-11-05T12:26:28.071Z,534.38
2017-11-05T12:27:28.061Z,573.75
2017-11-05T12:28:28.050Z,568.13
2017-11-05T12:29:28.042Z,562.50
2017-11-05T12:30:28.034Z,556.88
2017-11-05T12:31:28.024Z,568.13
2017-11-05T12:32:28.013Z,573.75
2017-11-05T12:33:28.008Z,585.00
2017-11-05T12:34:28.002Z,568.13
2017-11-05T12:35:27.997Z,556.88
2017-11-05T12:36:27.975Z,540.00
2017-11-05T12:37:27.966Z,551.25
2017-11-05T12:38:27.957Z,573.75
2017-11-05T12:39:27.951Z,568.13
2017-11-05T12:40:27.936Z,545.63
2017-11-05T12:41:27.927Z,556.88
2017-11-05T12:42:27.921Z,540.00
2017-11-05T12:43:27.909Z,545.63
2017-11-05T12:44:27.900Z,523.13
2017-11-05T12:45:27.891Z,506.25
2017-11-05T12:46:27.882Z,506.25
2017-11-05T12:47:27.870Z,506.25
2017-11-05T12:48:27.863Z,534.38
2017-11-05T12:49:27.853Z,523.13
2017-11-05T12:50:27.852Z,528.75
2017-11-05T12:51:27.834Z,562.50
2017-11-05T12:52:27.827Z,534.38
2017-11-05T12:53:27.815Z,551.25
2017-11-05T12:54:27.806Z,534.38
2017-11-05T12:55:27.799Z,556.88
2017-11-05T12:56:27.792Z,562.50
2017-11-05T12:57:27.779Z,540.00
2017-11-05T12:58:27.776Z,495.00
2017-11-05T12:59:27.763Z,483.75